EGTK/OXF METAR and TAF weather

Enter ICAO airport designator
Station Type Date Time Source
EGTK METAR 2018/04/26 14:50 UTC NOAA

EGTK 261450Z 25014KT 9999 SCT044 13/04 Q1014


Station Type Date Time Source
EGTK Decoded METAR 2018/04/26 14:50 UTC NOAA

Station name not available
Apr 26, 2018 - 10:50 AM EDT / 2018.04.26 1450 UTC
Wind: from the WSW (250 degrees) at 16 MPH (14 KT):0
Visibility: greater than 7 mile(s):0
Sky conditions: partly cloudy
Temperature: 55 F (13 C)
Dew Point: 39 F (4 C)
Relative Humidity: 54%
Pressure (altimeter): 29.94 in. Hg (1014 hPa)
ob: EGTK 261450Z 25014KT 9999 SCT044 13/04 Q1014
cycle: 15

Station Type Date Time Source
EGTK TAF UTC NOAA

Error!


Example: see airport list